»·PEaware :: N35CF KPDX-KSEA

N35CF :: KPDX-KSEA

FLIGHT INFORMATION

Flight Status: Arrived
Operator: Privately registered:
United States
More flights under this callsign
Pilot: Todd C. (18613)
Aircraft: BEECH AIRCRAFT A90-E90 KING AIR
(BE9L)
More flights by this aircraft type
Origin: KPDX Portland Intl
United States
Destination: KSEA Seattle-Tacoma Intl
United States
More flights between these airports :: More routes between these airports
Route: PTLD1 BTG OLM2
File this flight plan on PilotEdge
Remarks:
Altitude:
(Current/Filed)
10,000ft
Speed:
(Current/Filed)
230kts
Departed: 25-Feb-20 05:14 PM
Arrived: 25-Feb-20 06:01 PM
Distance/Time
Traveled:
112nm/0:47
Distance/Time
To Go:
Arrived

Flight Plot

Page will automatically refresh every two minutes.


Map Options




Map Legend


Flown Route
Filed Route
Departure Airport
Arrival Airport
Navaid (VOR, NDB)
Fix

Horizontal Profiles

Position Reports

Time Latitude Longitude Heading Altitude Ground
Speed
25-Feb-20 16:56 45.582488 -122.581391 29 16ft 0kts
25-Feb-20 16:57 45.582488 -122.581391 29 16ft 0kts
25-Feb-20 16:58 45.582488 -122.581391 29 16ft 0kts
25-Feb-20 16:59 45.582488 -122.581391 29 16ft 0kts
25-Feb-20 17:01 45.582488 -122.581391 29 16ft 0kts
25-Feb-20 17:02 45.582488 -122.581391 29 16ft 0kts
25-Feb-20 17:03 45.582488 -122.581391 29 16ft 0kts
25-Feb-20 17:04 45.582268 -122.581592 209 16ft 0kts
25-Feb-20 17:05 45.582268 -122.581592 209 16ft 0kts
25-Feb-20 17:06 45.582268 -122.581592 209 16ft 0kts
25-Feb-20 17:07 45.582268 -122.581592 209 16ft 0kts
25-Feb-20 17:08 45.582268 -122.581592 209 16ft 0kts
25-Feb-20 17:09 45.582264 -122.581595 209 16ft 0kts
25-Feb-20 17:10 45.581422 -122.583438 208 16ft 0kts
25-Feb-20 17:11 45.581422 -122.583438 208 16ft 0kts
25-Feb-20 17:12 45.581422 -122.583438 208 16ft 0kts
25-Feb-20 17:12 45.581422 -122.583438 208 16ft 0kts
25-Feb-20 17:14 45.584329 -122.593785 299 18ft 122kts
25-Feb-20 17:15 45.611401 -122.627758 15 2000ft 143kts
25-Feb-20 17:15 45.644803 -122.611818 14 3068ft 182kts
25-Feb-20 17:16 45.699281 -122.587482 14 2948ft 215kts
25-Feb-20 17:18 45.758447 -122.570869 341 4789ft 168kts
25-Feb-20 17:18 45.792665 -122.582168 351 6602ft 138kts
25-Feb-20 17:19 45.833387 -122.587801 350 8034ft 153kts
25-Feb-20 17:20 45.876297 -122.592404 348 9402ft 157kts
25-Feb-20 17:21 45.923459 -122.596764 350 9976ft 193kts
25-Feb-20 17:22 45.980056 -122.604838 347 9999ft 210kts
25-Feb-20 17:23 46.038215 -122.618915 342 10027ft 212kts
25-Feb-20 17:24 46.096265 -122.636582 343 10020ft 214kts
25-Feb-20 17:25 46.154878 -122.653788 343 10022ft 214kts
25-Feb-20 17:26 46.213321 -122.671306 343 10022ft 214kts
25-Feb-20 17:27 46.271602 -122.688807 343 10022ft 214kts
25-Feb-20 17:28 46.330168 -122.706445 343 10052ft 213kts
25-Feb-20 17:29 46.388222 -122.723960 343 10058ft 214kts
25-Feb-20 17:30 46.446601 -122.741632 343 10043ft 214kts
25-Feb-20 17:31 46.504708 -122.759107 343 10024ft 217kts
25-Feb-20 17:32 46.565283 -122.777579 342 10013ft 225kts
25-Feb-20 17:33 46.626917 -122.796344 342 10012ft 226kts
25-Feb-20 17:34 46.688496 -122.815063 342 10012ft 226kts
25-Feb-20 17:35 46.749984 -122.833871 343 10014ft 225kts
25-Feb-20 17:36 46.811315 -122.852653 343 10021ft 224kts
25-Feb-20 17:37 46.872962 -122.852812 14 10029ft 233kts
25-Feb-20 17:38 46.913703 -122.831295 14 10030ft 233kts
25-Feb-20 17:39 46.962388 -122.805510 14 10031ft 234kts
25-Feb-20 17:40 47.026326 -122.771487 14 10034ft 234kts
25-Feb-20 17:41 47.089284 -122.737497 15 10001ft 235kts
25-Feb-20 17:42 47.150624 -122.707269 14 9988ft 234kts
25-Feb-20 17:43 47.211738 -122.673794 15 10000ft 233kts
25-Feb-20 17:44 47.272880 -122.642425 13 9951ft 231kts
25-Feb-20 17:45 47.332625 -122.611232 14 10041ft 227kts
25-Feb-20 17:46 47.393391 -122.574776 17 9458ft 242kts
25-Feb-20 17:47 47.457653 -122.536591 13 7885ft 245kts
25-Feb-20 17:48 47.524175 -122.512110 3 6086ft 240kts
25-Feb-20 17:49 47.589453 -122.496337 6 4466ft 226kts
25-Feb-20 17:50 47.652238 -122.482803 5 4000ft 229kts
25-Feb-20 17:51 47.712291 -122.441304 27 3316ft 226kts
25-Feb-20 17:52 47.755948 -122.382253 94 3016ft 202kts
25-Feb-20 17:53 47.714502 -122.338729 165 2872ft 188kts
25-Feb-20 17:54 47.663557 -122.319851 175 2267ft 166kts
25-Feb-20 17:55 47.618623 -122.316980 181 1903ft 170kts
25-Feb-20 17:56 47.570299 -122.315509 181 2049ft 173kts
25-Feb-20 17:57 47.528716 -122.316721 183 1370ft 150kts
25-Feb-20 17:58 47.488814 -122.317390 183 741ft 117kts
25-Feb-20 17:59 47.459156 -122.317939 179 325ft 70kts
25-Feb-20 18:00 47.447848 -122.316588 154 371ft 0kts
25-Feb-20 18:01 47.442882 -122.313603 181 365ft 31kts
25-Feb-20 18:02 47.438516 -122.315250 192 347ft 18kts

Navigation Log

Ident Type
Flight plan parsing failed, navigation log unavailable